Terminal Aerodrome Forecast
Issued by NWS Twin Cities, MN

Home | Current Version | Previous Version | Text Only | Print | Product List | Glossary Off
Versions: 1 2 3 4 5 6 7 8 9 10 11 12 13 14 15 16 17 18 19 20

000
FTUS43 KMPX 221700
TAFEAU
TAF
KEAU 221740Z 2218/2318 16013G20KT P6SM BKN050
     FM230000 14009KT P6SM SCT070 BKN150
     FM230800 16008KT 5SM -SHRA BR BKN020 OVC030
     FM231200 18005KT 5SM BR OVC020=

USA.gov is the U.S. government's official web portal to all federal, state and local government web resources and services.